Time;durP1;ratioP1;P1;durP2;ratioP2;P2;SDS_P1;SDS_P2;PMS_P1;PMS_P2;Temp;Humidity;BMP_temperature;BMP_pressure;BME280_temperature;BME280_humidity;BME280_pressure;Samples;Min_cycle;Max_cycle;Signal;HPM_P1;HPM_P2
2024/04/23 00:00:43;;;;;;;5.93;4.07;;;;;;;2.09;100.00;98314.06;5449712;26;20296;-79
2024/04/23 00:03:11;;;;;;;6.20;3.80;;;;;;;2.01;100.00;98310.00;5449755;26;20666;-78
2024/04/23 00:05:37;;;;;;;6.50;4.00;;;;;;;1.96;100.00;98312.75;5450397;26;20426;-78
2024/04/23 00:08:05;;;;;;;5.80;4.27;;;;;;;1.99;100.00;98317.03;5450384;26;20777;-79
2024/04/23 00:10:33;;;;;;;6.77;4.60;;;;;;;1.91;100.00;98314.66;5450205;26;20396;-79
2024/04/23 00:13:02;;;;;;;6.73;4.10;;;;;;;1.87;100.00;98304.38;5450379;25;20235;-79
2024/04/23 00:15:27;;;;;;;6.20;3.93;;;;;;;1.82;100.00;98311.50;5450383;26;20238;-79
2024/04/23 00:17:55;;;;;;;6.47;4.20;;;;;;;1.77;100.00;98306.44;5450758;26;20309;-80
2024/04/23 00:20:21;;;;;;;5.20;4.10;;;;;;;1.74;100.00;98303.06;5449969;26;20324;-79
2024/04/23 00:22:49;;;;;;;7.70;4.30;;;;;;;1.68;100.00;98301.53;5449863;26;20714;-79
2024/04/23 00:25:14;;;;;;;6.83;3.90;;;;;;;1.66;100.00;98303.31;5450683;26;20313;-79
2024/04/23 00:27:45;;;;;;;5.37;4.37;;;;;;;1.63;100.00;98293.00;5450668;26;20236;-79
2024/04/23 00:30:11;;;;;;;6.83;4.63;;;;;;;1.66;100.00;98295.50;5450807;26;20319;-79
2024/04/23 00:32:39;;;;;;;6.07;4.40;;;;;;;1.65;100.00;98298.19;5451310;26;20228;-79
2024/04/23 00:35:04;;;;;;;5.80;4.00;;;;;;;1.57;100.00;98301.00;5451091;26;20362;-79
2024/04/23 00:37:33;;;;;;;7.07;4.50;;;;;;;1.55;100.00;98288.94;5450630;26;20227;-79
2024/04/23 00:39:58;;;;;;;6.90;4.80;;;;;;;1.45;100.00;98288.38;5450483;26;20484;-79
2024/04/23 00:42:26;;;;;;;6.10;4.30;;;;;;;1.42;100.00;98288.44;5451588;26;20222;-79
2024/04/23 00:44:55;;;;;;;7.50;4.93;;;;;;;1.34;100.00;98280.03;5450651;26;20272;-79
2024/04/23 00:47:23;;;;;;;6.47;4.17;;;;;;;1.31;100.00;98274.94;5451777;26;20300;-79
2024/04/23 00:49:49;;;;;;;7.20;4.80;;;;;;;1.22;100.00;98275.19;5451143;26;20295;-79
2024/04/23 00:52:19;;;;;;;6.80;4.37;;;;;;;1.17;100.00;98277.06;5451199;26;20328;-79
2024/04/23 00:54:45;;;;;;;6.67;5.10;;;;;;;1.18;100.00;98272.72;5451197;26;20255;-79
2024/04/23 00:57:13;;;;;;;7.20;4.60;;;;;;;1.17;100.00;98271.88;5451502;26;20236;-79
2024/04/23 00:59:39;;;;;;;7.13;4.83;;;;;;;1.22;100.00;98267.38;5451323;26;20654;-79
2024/04/23 01:02:10;;;;;;;7.40;5.07;;;;;;;1.20;100.00;98266.59;5452215;26;20285;-79
2024/04/23 01:04:35;;;;;;;5.80;4.70;;;;;;;1.35;100.00;98271.31;5451649;26;20716;-79
2024/04/23 01:07:04;;;;;;;7.00;4.57;;;;;;;1.32;100.00;98265.34;5452118;26;20259;-79
2024/04/23 01:09:29;;;;;;;7.43;4.40;;;;;;;1.34;100.00;98269.59;5452195;26;20228;-79
2024/04/23 01:11:58;;;;;;;6.77;4.83;;;;;;;1.34;100.00;98268.75;5454717;26;20324;-79
2024/04/23 01:14:24;;;;;;;6.63;4.60;;;;;;;1.33;100.00;98278.31;5455012;26;20274;-79
2024/04/23 01:16:53;;;;;;;7.53;5.23;;;;;;;1.31;100.00;98269.72;5454678;26;20332;-79
2024/04/23 01:19:30;;;;;;;8.27;4.87;;;;;;;1.35;100.00;98275.69;5453497;26;20619;-79
2024/04/23 01:22:06;;;;;;;6.77;4.67;;;;;;;1.31;100.00;98268.84;5453104;26;20699;-79
2024/04/23 01:24:35;;;;;;;7.30;5.00;;;;;;;1.29;100.00;98271.50;5452728;26;20234;-79
2024/04/23 01:27:06;;;;;;;7.73;5.03;;;;;;;1.18;100.00;98268.34;5453321;26;20228;-79
2024/04/23 01:29:33;;;;;;;6.63;4.50;;;;;;;1.14;100.00;98271.97;5454128;26;20298;-79
2024/04/23 01:32:05;;;;;;;6.23;4.70;;;;;;;1.15;100.00;98265.88;5452817;26;20255;-79
2024/04/23 01:34:33;;;;;;;6.23;4.67;;;;;;;1.15;100.00;98265.00;5452249;26;20234;-79
2024/04/23 01:37:02;;;;;;;7.63;5.23;;;;;;;1.08;100.00;98259.13;5451245;26;20259;-79
2024/04/23 01:39:28;;;;;;;8.40;5.70;;;;;;;1.12;100.00;98263.34;5449884;26;20282;-79
2024/04/23 01:41:57;;;;;;;8.57;5.83;;;;;;;1.10;100.00;98265.13;5449518;26;20264;-79
2024/04/23 01:44:26;;;;;;;8.07;5.77;;;;;;;1.03;100.00;98258.41;5450130;26;20264;-79
2024/04/23 01:46:55;;;;;;;8.03;5.53;;;;;;;1.04;100.00;98264.50;5450017;26;20782;-80
2024/04/23 01:49:21;;;;;;;9.70;5.83;;;;;;;0.98;100.00;98264.66;5450120;26;20662;-78
2024/04/23 01:51:49;;;;;;;6.67;5.20;;;;;;;0.97;100.00;98263.81;5449003;26;20226;-79
2024/04/23 01:54:15;;;;;;;7.97;5.53;;;;;;;0.97;100.00;98269.00;5449253;26;20361;-79
2024/04/23 01:56:43;;;;;;;8.60;5.50;;;;;;;0.93;100.00;98267.38;5448646;26;20237;-79
2024/04/23 01:59:08;;;;;;;8.37;5.33;;;;;;;0.89;100.00;98270.13;5449644;26;20355;-79
2024/04/23 02:01:44;;;;;;;6.40;4.93;;;;;;;0.89;100.00;98267.53;5448199;26;20685;-79
2024/04/23 02:04:12;;;;;;;8.53;5.97;;;;;;;0.89;100.00;98260.59;5449638;26;20275;-79
2024/04/23 02:06:40;;;;;;;9.77;6.30;;;;;;;0.88;100.00;98265.81;5449284;26;20280;-79
2024/04/23 02:09:06;;;;;;;8.83;5.73;;;;;;;0.83;100.00;98263.34;5448832;26;20255;-79
2024/04/23 02:11:34;;;;;;;7.93;5.90;;;;;;;0.78;100.00;98260.03;5448932;26;20241;-79
2024/04/23 02:14:00;;;;;;;8.80;5.47;;;;;;;0.80;100.00;98260.84;5449262;26;20229;-79
2024/04/23 02:16:28;;;;;;;9.20;6.43;;;;;;;0.87;100.00;98258.91;5448908;26;20303;-79
2024/04/23 02:18:56;;;;;;;7.37;5.43;;;;;;;0.84;100.00;98259.00;5449256;26;20316;-79
2024/04/23 02:21:25;;;;;;;6.73;5.17;;;;;;;0.82;100.00;98261.66;5448824;26;20242;-79
2024/04/23 02:23:50;;;;;;;8.77;5.70;;;;;;;0.81;100.00;98259.94;5448895;26;20260;-79
2024/04/23 02:26:18;;;;;;;8.30;5.70;;;;;;;0.77;100.00;98265.28;5448940;26;20576;-79
2024/04/23 02:28:44;;;;;;;7.87;5.70;;;;;;;0.77;100.00;98260.94;5449004;26;20338;-79
2024/04/23 02:31:13;;;;;;;8.00;5.37;;;;;;;0.76;100.00;98259.22;5449228;26;20241;-79
2024/04/23 02:33:38;;;;;;;7.90;5.50;;;;;;;0.75;100.00;98257.50;5449923;26;20272;-79
2024/04/23 02:36:10;;;;;;;8.50;5.77;;;;;;;0.76;100.00;98253.16;5449148;26;20328;-79
2024/04/23 02:38:35;;;;;;;7.33;5.40;;;;;;;0.70;100.00;98248.13;5448546;26;20266;-79
2024/04/23 02:41:03;;;;;;;9.23;5.50;;;;;;;0.65;100.00;98250.88;5447788;26;20455;-80
2024/04/23 02:43:29;;;;;;;7.80;5.00;;;;;;;0.56;100.00;98245.09;5450182;26;20737;-80
2024/04/23 02:45:57;;;;;;;9.93;5.87;;;;;;;0.61;100.00;98251.84;5452099;26;20317;-80
2024/04/23 02:48:23;;;;;;;7.37;5.03;;;;;;;0.62;100.00;98260.50;5452999;26;20263;-80
2024/04/23 02:50:51;;;;;;;7.23;5.27;;;;;;;0.61;100.00;98253.63;5449367;26;20321;-80
2024/04/23 02:53:19;;;;;;;7.90;5.57;;;;;;;0.56;100.00;98251.13;5453083;26;20282;-79
2024/04/23 02:55:47;;;;;;;6.60;5.57;;;;;;;0.54;100.00;98252.91;5452925;26;20228;-79
2024/04/23 02:58:12;;;;;;;7.33;5.57;;;;;;;0.51;100.00;98253.00;5453203;26;20725;-79
2024/04/23 03:00:41;;;;;;;8.53;5.00;;;;;;;0.54;100.00;98252.91;5452550;26;20243;-80
2024/04/23 03:03:06;;;;;;;6.97;5.73;;;;;;;0.53;100.00;98251.22;5452661;26;20224;-80
2024/04/23 03:05:34;;;;;;;10.73;6.30;;;;;;;0.63;100.00;98247.44;5452500;26;20321;-80
2024/04/23 03:08:00;;;;;;;10.73;6.10;;;;;;;0.54;100.00;98247.72;5452413;26;20352;-80
2024/04/23 03:10:30;;;;;;;10.90;6.37;;;;;;;0.47;100.00;98243.59;5451513;26;20243;-80
2024/04/23 03:12:56;;;;;;;10.70;6.87;;;;;;;0.48;100.00;98247.88;5452778;26;20619;-80
2024/04/23 03:15:25;;;;;;;11.40;7.07;;;;;;;0.43;100.00;98241.97;5453042;26;20292;-79
2024/04/23 03:17:50;;;;;;;9.93;6.60;;;;;;;0.43;100.00;98233.31;5452936;26;20805;-80
2024/04/23 03:20:19;;;;;;;9.97;6.47;;;;;;;0.35;100.00;98230.94;5451503;26;20239;-80
2024/04/23 03:22:45;;;;;;;8.80;6.10;;;;;;;0.28;100.00;98232.00;5453153;26;20249;-80
2024/04/23 03:25:13;;;;;;;10.07;6.20;;;;;;;0.30;100.00;98231.94;5452383;26;20318;-80
2024/04/23 03:27:41;;;;;;;10.33;6.23;;;;;;;0.34;100.00;98238.75;5451555;26;20325;-80
2024/04/23 03:30:10;;;;;;;8.33;6.13;;;;;;;0.29;100.00;98233.69;5452169;26;20789;-79
2024/04/23 03:32:35;;;;;;;9.60;6.30;;;;;;;0.36;100.00;98226.56;5451901;26;20227;-80
2024/04/23 03:35:03;;;;;;;9.13;6.33;;;;;;;0.25;100.00;98228.63;5452827;25;20268;-79
2024/04/23 03:37:32;;;;;;;12.20;7.60;;;;;;;0.20;100.00;98233.94;5452007;26;20679;-79
2024/04/23 03:40:00;;;;;;;9.07;6.40;;;;;;;0.21;100.00;98227.88;5451666;26;20289;-78
2024/04/23 03:42:28;;;;;;;9.33;6.57;;;;;;;0.26;100.00;98225.97;5451643;26;20268;-78
2024/04/23 03:44:59;;;;;;;8.97;5.87;;;;;;;0.16;100.00;98224.53;5451187;26;20341;-79
2024/04/23 03:47:28;;;;;;;10.10;6.27;;;;;;;0.17;100.00;98228.81;5453409;26;20332;-79
2024/04/23 03:49:54;;;;;;;11.40;5.97;;;;;;;0.19;100.00;98227.03;5453765;26;20297;-79
2024/04/23 03:52:26;;;;;;;9.53;6.30;;;;;;;0.17;100.00;98226.22;5452958;26;20427;-78
2024/04/23 03:54:51;;;;;;;9.30;6.53;;;;;;;0.19;100.00;98215.81;5453624;26;20212;-79
2024/04/23 03:57:19;;;;;;;8.93;5.97;;;;;;;0.13;100.00;98221.16;5453887;26;20221;-78
2024/04/23 03:59:45;;;;;;;8.50;6.03;;;;;;;0.08;100.00;98226.44;5453069;26;20279;-78
2024/04/23 04:07:44;;;;;;;8.90;5.63;;;;;;;0.05;100.00;98220.50;5454535;26;20281;-79
2024/04/23 04:10:12;;;;;;;7.40;6.10;;;;;;;-0.01;100.00;98215.47;5452292;26;20280;-79
2024/04/23 04:12:40;;;;;;;8.00;5.53;;;;;;;-0.01;100.00;98216.31;5450929;26;20693;-78
2024/04/23 04:15:08;;;;;;;12.27;6.73;;;;;;;0.07;100.00;98214.38;5451771;26;20272;-78
2024/04/23 04:17:36;;;;;;;8.87;5.87;;;;;;;-0.04;100.00;98210.34;5450794;26;20264;-79
2024/04/23 04:20:06;;;;;;;9.67;6.17;;;;;;;0.04;100.00;98203.19;5450310;26;20260;-78
2024/04/23 04:22:34;;;;;;;10.87;6.87;;;;;;;0.08;100.00;98204.84;5450583;26;20235;-80
2024/04/23 04:24:59;;;;;;;8.33;5.90;;;;;;;0.11;100.00;98209.94;5451260;26;20315;-80
2024/04/23 04:27:27;;;;;;;10.73;6.37;;;;;;;0.02;100.00;98205.84;5451399;26;20230;-80
2024/04/23 04:29:53;;;;;;;8.83;6.23;;;;;;;0.00;100.00;98212.81;5451477;26;20642;-80
2024/04/23 04:32:21;;;;;;;11.23;6.30;;;;;;;0.07;100.00;98211.75;5449927;25;20323;-80
2024/04/23 04:34:49;;;;;;;9.23;6.50;;;;;;;0.06;100.00;98214.41;5450757;26;20659;-79
2024/04/23 04:37:17;;;;;;;11.43;7.40;;;;;;;0.11;100.00;98210.81;5450532;26;20225;-79
2024/04/23 04:39:43;;;;;;;10.80;6.80;;;;;;;0.05;100.00;98210.97;5449859;26;20598;-79
2024/04/23 04:42:11;;;;;;;8.23;5.50;;;;;;;0.11;100.00;98210.81;5449319;26;20226;-80
2024/04/23 04:44:37;;;;;;;7.90;5.70;;;;;;;0.14;100.00;98209.88;5449539;26;20229;-80
2024/04/23 04:47:05;;;;;;;8.50;5.70;;;;;;;0.14;100.00;98212.47;5450269;26;20299;-78
2024/04/23 04:49:30;;;;;;;9.80;6.67;;;;;;;0.13;100.00;98216.81;5449382;26;20752;-81
2024/04/23 04:52:01;;;;;;;8.57;5.60;;;;;;;0.17;100.00;98220.16;5450499;26;20323;-79
2024/04/23 04:54:26;;;;;;;10.23;7.03;;;;;;;0.33;100.00;98222.28;5450659;26;20655;-79
2024/04/23 04:56:54;;;;;;;10.97;6.43;;;;;;;0.34;100.00;98210.16;5451348;26;20242;-79
2024/04/23 04:59:20;;;;;;;9.80;5.80;;;;;;;0.34;100.00;98218.84;5450183;26;20261;-79
2024/04/23 05:01:49;;;;;;;9.23;6.63;;;;;;;0.40;100.00;98223.88;5449844;26;20803;-79
2024/04/23 05:04:14;;;;;;;7.77;5.87;;;;;;;0.32;100.00;98212.81;5450928;26;20362;-78
2024/04/23 05:06:42;;;;;;;14.77;5.47;;;;;;;0.45;100.00;98216.75;5449061;26;20298;-80
2024/04/23 05:09:11;;;;;;;7.87;5.33;;;;;;;0.56;100.00;98219.91;5451799;26;20363;-81
2024/04/23 05:11:39;;;;;;;8.63;5.80;;;;;;;0.69;100.00;98215.22;5451110;26;20226;-81
2024/04/23 05:14:04;;;;;;;7.90;5.47;;;;;;;0.61;100.00;98212.00;5451748;26;20266;-79
2024/04/23 05:16:32;;;;;;;12.40;6.20;;;;;;;0.64;100.00;98217.09;5451745;26;20313;-79
2024/04/23 05:18:58;;;;;;;9.30;5.83;;;;;;;0.80;100.00;98220.97;5452831;26;20320;-79
2024/04/23 05:21:26;;;;;;;7.33;5.50;;;;;;;0.88;100.00;98221.59;5452344;25;20246;-80
2024/04/23 05:23:52;;;;;;;7.90;5.93;;;;;;;0.97;100.00;98222.16;5451802;26;20289;-79
2024/04/23 05:26:23;;;;;;;7.87;5.60;;;;;;;0.95;100.00;98225.72;5451468;26;20236;-79
2024/04/23 05:28:48;;;;;;;8.93;5.40;;;;;;;1.10;100.00;98217.47;5451535;26;20289;-79
2024/04/23 05:34:02;;;;;;;7.40;5.17;;;;;;;1.12;100.00;98221.69;5452979;26;20259;-79
2024/04/23 05:36:30;;;;;;;7.50;5.17;;;;;;;1.25;100.00;98225.66;5450082;26;20753;-79
2024/04/23 05:38:58;;;;;;;7.77;5.40;;;;;;;1.18;100.00;98221.50;5449369;26;20278;-79
2024/04/23 05:41:29;;;;;;;7.40;5.10;;;;;;;1.24;100.00;98226.53;5448867;26;20290;-79
2024/04/23 05:43:58;;;;;;;6.83;5.67;;;;;;;1.37;100.00;98222.66;5449351;26;20232;-79
2024/04/23 05:46:27;;;;;;;7.20;5.27;;;;;;;1.51;100.00;98223.06;5448463;26;20223;-79
2024/04/23 05:49:32;;;;;;;7.83;5.60;;;;;;;1.53;100.00;98223.84;5449519;26;20304;-79
2024/04/23 05:52:38;;;;;;;10.43;5.87;;;;;;;1.66;100.00;98217.34;5449025;26;20273;-79
2024/04/23 05:55:29;;;;;;;8.50;5.60;;;;;;;2.06;100.00;98209.91;5449118;26;20230;-79
2024/04/23 05:58:00;;;;;;;11.53;6.70;;;;;;;2.54;100.00;98197.75;5448617;26;20235;-79
2024/04/23 06:00:26;;;;;;;6.40;5.03;;;;;;;3.07;99.89;98182.69;5447375;26;20451;-79
2024/04/23 06:02:54;;;;;;;6.43;4.80;;;;;;;3.47;96.10;98167.09;5448544;26;20715;-79
2024/04/23 06:05:20;;;;;;;7.73;4.43;;;;;;;3.81;92.64;98150.00;5448389;26;20238;-79
2024/04/23 06:07:48;;;;;;;8.20;5.17;;;;;;;3.98;87.34;98133.59;5448702;26;20330;-79
2024/04/23 06:10:14;;;;;;;6.90;4.50;;;;;;;4.08;85.63;98127.03;5447975;26;20233;-79
2024/04/23 06:12:42;;;;;;;6.40;4.57;;;;;;;4.30;84.09;98128.66;5449140;26;20713;-79
2024/04/23 06:15:10;;;;;;;4.77;4.00;;;;;;;4.76;80.97;98136.09;5447557;26;20293;-79
2024/04/23 06:17:38;;;;;;;6.53;5.00;;;;;;;4.90;77.96;98123.22;5449009;26;20231;-79
2024/04/23 06:20:05;;;;;;;6.43;4.80;;;;;;;4.95;76.78;98116.00;5450484;26;20345;-79
2024/04/23 06:22:36;;;;;;;5.30;4.33;;;;;;;4.82;77.58;98130.59;5446520;26;20770;-75
2024/04/23 06:25:03;;;;;;;5.07;4.57;;;;;;;4.45;78.58;98134.97;5442240;26;20269;-76
2024/04/23 06:27:33;;;;;;;7.30;4.30;;;;;;;3.96;80.27;98149.34;5442250;26;20287;-77
2024/04/23 06:30:05;;;;;;;7.60;4.97;;;;;;;3.63;83.47;98169.06;5441620;26;20746;-76
2024/04/23 06:32:37;;;;;;;6.13;4.67;;;;;;;3.53;83.51;98175.56;5442505;26;20221;-76
2024/04/23 06:35:03;;;;;;;6.37;4.57;;;;;;;3.38;82.66;98165.75;5442233;26;20473;-76
2024/04/23 06:37:31;;;;;;;5.40;4.37;;;;;;;3.35;84.56;98173.69;5442083;26;20223;-76
2024/04/23 06:39:57;;;;;;;9.63;4.80;;;;;;;3.22;85.64;98176.84;5442224;26;20254;-77
2024/04/23 06:42:25;;;;;;;6.00;4.80;;;;;;;3.20;87.65;98195.22;5442229;26;20526;-75
2024/04/23 06:44:50;;;;;;;6.67;4.77;;;;;;;3.23;86.99;98184.63;5441712;26;20228;-76
2024/04/23 06:47:19;;;;;;;6.70;5.10;;;;;;;3.45;88.00;98185.47;5441434;26;20723;-76
2024/04/23 06:49:47;;;;;;;5.83;4.50;;;;;;;3.38;85.91;98178.81;5441906;26;20488;-76
2024/04/23 06:52:16;;;;;;;6.17;4.43;;;;;;;3.48;83.62;98159.22;5441694;26;20263;-76
2024/04/23 06:54:42;;;;;;;7.83;4.83;;;;;;;3.47;82.92;98152.31;5442039;26;20224;-76
2024/04/23 06:57:10;;;;;;;7.90;4.80;;;;;;;3.54;82.42;98153.75;5442100;26;20282;-76
2024/04/23 06:59:36;;;;;;;6.57;4.43;;;;;;;3.70;84.43;98165.28;5444856;26;20292;-79
2024/04/23 07:02:05;;;;;;;6.20;4.30;;;;;;;3.76;82.27;98149.34;5448626;26;20351;-79
2024/04/23 07:04:30;;;;;;;6.27;4.87;;;;;;;3.74;80.06;98135.47;5449066;26;20336;-79
2024/04/23 07:07:01;;;;;;;6.10;4.50;;;;;;;3.71;81.07;98140.84;5450075;26;20754;-81
2024/04/23 07:09:27;;;;;;;6.87;4.50;;;;;;;3.95;78.56;98129.34;5449021;26;20324;-79
2024/04/23 07:11:55;;;;;;;5.23;4.70;;;;;;;3.97;77.80;98124.88;5448174;26;20224;-78
2024/04/23 07:14:20;;;;;;;5.90;4.87;;;;;;;3.96;78.81;98124.94;5448584;26;20656;-79
2024/04/23 07:16:48;;;;;;;6.30;4.90;;;;;;;4.03;78.56;98123.78;5447471;26;20225;-77
2024/04/23 07:19:14;;;;;;;7.33;4.77;;;;;;;3.97;80.80;98148.41;5449358;26;20304;-81
2024/04/23 07:21:42;;;;;;;7.57;4.73;;;;;;;4.16;80.71;98143.25;5445314;26;20227;-78
2024/04/23 07:24:10;;;;;;;5.83;4.90;;;;;;;4.19;79.53;98137.88;5445010;26;20371;-78
2024/04/23 07:26:39;;;;;;;5.53;4.63;;;;;;;4.24;79.28;98131.53;5444654;26;20259;-78
2024/04/23 07:29:06;;;;;;;6.67;4.90;;;;;;;4.38;80.34;98133.53;5445064;26;20222;-78
2024/04/23 07:31:34;;;;;;;8.23;4.97;;;;;;;4.53;81.54;98138.91;5446763;26;20228;-79
2024/04/23 07:33:59;;;;;;;7.70;5.13;;;;;;;4.71;80.11;98138.09;5444333;26;20313;-79
2024/04/23 07:36:28;;;;;;;7.13;4.47;;;;;;;4.76;75.81;98093.38;5446335;26;20707;-78
2024/04/23 07:38:54;;;;;;;7.80;5.30;;;;;;;4.79;77.89;98114.19;5448150;26;20561;-79
2024/04/23 07:41:24;;;;;;;5.50;4.43;;;;;;;4.75;77.46;98117.84;5449629;26;20282;-80
2024/04/23 07:43:50;;;;;;;6.97;4.87;;;;;;;4.90;77.61;98111.91;5449306;26;20278;-82
2024/04/23 07:46:18;;;;;;;6.13;4.37;;;;;;;4.90;77.26;98110.13;5449863;26;20323;-80
2024/04/23 07:48:43;;;;;;;7.47;4.70;;;;;;;5.07;76.03;98104.94;5449808;26;20228;-80
2024/04/23 07:51:12;;;;;;;8.23;5.00;;;;;;;5.11;75.37;98092.53;5449065;26;20667;-80
2024/04/23 07:53:37;;;;;;;6.07;4.73;;;;;;;5.20;74.72;98090.31;5449845;26;20251;-80
2024/04/23 07:56:07;;;;;;;5.47;4.70;;;;;;;5.34;74.51;98094.91;5449124;26;20830;-83
2024/04/23 07:58:35;;;;;;;6.20;4.83;;;;;;;5.27;73.84;98083.03;5446461;26;20280;-80
2024/04/23 08:01:03;;;;;;;5.03;4.27;;;;;;;5.24;71.76;98072.69;5447286;26;20278;-79
2024/04/23 08:03:34;;;;;;;6.30;4.60;;;;;;;5.29;70.85;98074.19;5449831;26;20839;-79
2024/04/23 08:06:02;;;;;;;6.93;4.27;;;;;;;5.27;70.88;98065.56;5450924;26;20332;-79
2024/04/23 08:08:30;;;;;;;5.63;4.60;;;;;;;5.38;74.09;98094.66;5450307;26;20267;-79
2024/04/23 08:10:56;;;;;;;5.80;4.70;;;;;;;5.48;71.80;98077.56;5450288;26;20266;-79
2024/04/23 08:13:24;;;;;;;5.40;4.70;;;;;;;5.51;70.95;98069.53;5449730;26;20227;-79
2024/04/23 08:15:56;;;;;;;5.13;4.37;;;;;;;5.74;69.46;98045.63;5451104;26;20307;-78
2024/04/23 08:18:24;;;;;;;9.07;4.90;;;;;;;5.78;69.00;98052.44;5447597;26;20229;-78
2024/04/23 08:20:50;;;;;;;6.97;4.50;;;;;;;5.90;67.94;98038.72;5446839;26;20657;-78
2024/04/23 08:23:19;;;;;;;6.60;4.20;;;;;;;6.02;69.03;98050.34;5447894;26;20395;-78
2024/04/23 08:25:46;;;;;;;6.43;4.17;;;;;;;6.14;68.64;98050.56;5448932;26;20227;-79
2024/04/23 08:28:15;;;;;;;5.80;3.97;;;;;;;6.29;66.13;98017.41;5448319;26;20235;-78
2024/04/23 08:30:40;;;;;;;5.60;4.00;;;;;;;6.31;66.04;98013.78;5447971;26;20399;-78
2024/04/23 08:33:11;;;;;;;4.50;4.00;;;;;;;6.39;65.61;98008.06;5449278;26;20242;-81
2024/04/23 08:35:36;;;;;;;5.80;4.30;;;;;;;6.40;66.63;98021.13;5450381;26;20674;-79
2024/04/23 08:38:04;;;;;;;5.00;4.37;;;;;;;6.41;65.87;98014.94;5443905;26;20240;-78
2024/04/23 08:40:30;;;;;;;6.07;3.87;;;;;;;6.58;64.42;98001.75;5447004;26;20299;-79
2024/04/23 08:43:04;;;;;;;4.50;4.00;;;;;;;6.56;64.59;98011.50;5448764;26;20707;-80
2024/04/23 08:45:34;;;;;;;4.63;3.60;;;;;;;6.73;65.65;98028.94;5448702;26;20274;-79
2024/04/23 08:48:03;;;;;;;6.60;4.83;;;;;;;6.86;68.46;98054.44;5449933;26;20255;-79
2024/04/23 08:50:34;;;;;;;6.00;5.13;;;;;;;7.07;67.31;98042.72;5449935;26;20313;-79
2024/04/23 08:53:05;;;;;;;6.10;4.17;;;;;;;7.28;66.49;98044.13;5450710;26;20251;-79
2024/04/23 08:55:32;;;;;;;5.10;4.10;;;;;;;7.39;64.72;98012.78;5450406;26;20225;-78
2024/04/23 08:58:00;;;;;;;4.87;4.07;;;;;;;7.47;62.18;97982.50;5450331;26;20236;-79
2024/04/23 09:00:26;;;;;;;5.30;4.47;;;;;;;7.40;61.56;97967.16;5448738;26;20372;-79
2024/04/23 09:02:55;;;;;;;4.97;3.63;;;;;;;7.38;61.54;97971.66;5450582;26;20263;-79
2024/04/23 09:05:21;;;;;;;5.40;4.30;;;;;;;7.47;61.52;97984.28;5450111;26;20334;-79
2024/04/23 09:07:54;;;;;;;6.03;4.70;;;;;;;7.48;61.34;97997.31;5450653;25;20329;-79
2024/04/23 09:10:19;;;;;;;4.67;4.17;;;;;;;7.59;61.97;98008.06;5448513;26;20325;-79
2024/04/23 09:12:48;;;;;;;5.07;4.00;;;;;;;7.62;61.71;98001.78;5450301;26;20233;-79
2024/04/23 09:15:14;;;;;;;6.03;4.20;;;;;;;7.57;60.20;97993.31;5450214;26;20688;-79
2024/04/23 09:17:54;;;;;;;5.57;4.50;;;;;;;7.59;60.74;98001.97;5450247;26;20240;-79
2024/04/23 09:20:21;;;;;;;8.40;4.37;;;;;;;7.58;61.06;98005.50;5449229;26;20280;-79
2024/04/23 09:22:56;;;;;;;5.10;3.93;;;;;;;7.64;61.00;98011.28;5450400;26;20224;-79
2024/04/23 09:25:21;;;;;;;5.73;4.60;;;;;;;7.75;61.77;98013.25;5450929;26;20648;-79
2024/04/23 09:27:50;;;;;;;5.10;4.33;;;;;;;7.87;62.38;98023.91;5450962;26;20325;-79
2024/04/23 09:30:25;;;;;;;4.47;3.70;;;;;;;8.08;59.98;98000.72;5449880;26;20327;-79
2024/04/23 09:33:04;;;;;;;5.73;4.50;;;;;;;8.31;59.68;98000.13;5451219;26;20308;-79
2024/04/23 09:35:30;;;;;;;5.80;3.90;;;;;;;8.43;59.36;97997.59;5451403;26;20313;-80
2024/04/23 09:38:01;;;;;;;4.73;4.17;;;;;;;8.59;59.27;98018.56;5451771;26;20242;-79
2024/04/23 09:40:27;;;;;;;5.23;3.70;;;;;;;8.72;58.66;98014.19;5451047;26;20446;-79
2024/04/23 09:42:56;;;;;;;6.10;4.03;;;;;;;8.74;56.77;97989.44;5450295;26;20717;-79
2024/04/23 09:45:24;;;;;;;5.37;3.93;;;;;;;8.69;57.21;97999.44;5449687;26;20321;-79
2024/04/23 09:47:52;;;;;;;4.23;3.67;;;;;;;8.75;57.85;98019.28;5450271;26;20231;-79
2024/04/23 09:50:19;;;;;;;4.57;4.13;;;;;;;8.80;59.22;98033.84;5447754;26;20371;-79
2024/04/23 09:52:48;;;;;;;5.43;3.83;;;;;;;8.92;58.23;98022.53;5448906;26;20230;-79
2024/04/23 09:55:16;;;;;;;6.77;4.47;;;;;;;8.88;55.04;97980.66;5451604;26;20325;-79
2024/04/23 09:57:45;;;;;;;4.00;3.60;;;;;;;9.03;55.92;97993.69;5452604;26;20321;-79
2024/04/23 10:00:11;;;;;;;6.63;3.97;;;;;;;9.13;53.78;97972.84;5450936;26;20363;-79
2024/04/23 10:02:40;;;;;;;5.70;4.07;;;;;;;9.11;53.54;97958.91;5451581;26;20318;-79
2024/04/23 10:05:09;;;;;;;9.43;4.27;;;;;;;9.14;53.22;97963.97;5448863;26;20256;-77
2024/04/23 10:07:45;;;;;;;4.80;3.90;;;;;;;9.13;52.22;97949.09;5450804;26;20261;-80
2024/04/23 10:10:12;;;;;;;4.93;3.60;;;;;;;9.20;53.19;97968.84;5451104;26;20245;-79
2024/04/23 10:12:47;;;;;;;5.33;4.00;;;;;;;9.34;53.15;97976.66;5452623;26;20231;-79
2024/04/23 10:15:19;;;;;;;4.47;3.53;;;;;;;9.42;52.75;97975.22;5452768;26;20234;-79
2024/04/23 10:17:52;;;;;;;4.97;3.73;;;;;;;9.28;52.03;97958.63;5452139;26;20257;-79
2024/04/23 10:20:25;;;;;;;4.67;3.60;;;;;;;9.26;52.69;97964.03;5451611;26;20717;-80
2024/04/23 10:22:53;;;;;;;5.30;3.60;;;;;;;9.24;52.64;97965.06;5452709;26;20290;-79
2024/04/23 10:25:22;;;;;;;4.97;3.57;;;;;;;9.49;52.26;97959.84;5452322;26;20715;-79
2024/04/23 10:27:52;;;;;;;4.33;3.57;;;;;;;9.67;52.34;97958.59;5452409;26;20398;-80
2024/04/23 10:30:21;;;;;;;4.07;3.50;;;;;;;9.70;49.42;97921.41;5451288;26;20267;-80
2024/04/23 10:32:47;;;;;;;3.90;3.00;;;;;;;9.96;49.58;97931.00;5452046;26;20228;-79
2024/04/23 10:35:18;;;;;;;4.60;3.80;;;;;;;10.36;50.26;97940.50;5453104;26;20221;-79
2024/04/23 10:37:45;;;;;;;5.00;4.23;;;;;;;10.32;48.73;97925.81;5452038;26;20223;-79
2024/04/23 10:40:15;;;;;;;5.53;3.80;;;;;;;10.14;49.77;97932.38;5450960;26;20240;-80
2024/04/23 10:42:42;;;;;;;4.43;3.53;;;;;;;10.07;49.84;97923.22;5450862;26;20915;-79
2024/04/23 10:45:14;;;;;;;4.73;3.60;;;;;;;9.93;49.00;97933.88;5451187;26;20235;-79
2024/04/23 10:47:48;;;;;;;4.33;3.50;;;;;;;9.73;49.05;97922.06;5451830;26;20222;-79
2024/04/23 10:50:26;;;;;;;5.20;3.53;;;;;;;9.64;49.34;97911.28;5451136;26;20723;-79
2024/04/23 10:52:56;;;;;;;5.23;3.53;;;;;;;9.70;50.58;97927.56;5452787;26;20279;-79
2024/04/23 10:55:24;;;;;;;4.90;3.80;;;;;;;9.74;50.05;97923.72;5451721;26;20265;-80
2024/04/23 10:57:50;;;;;;;3.53;3.07;;;;;;;9.64;49.69;97921.84;5450636;26;20279;-78
2024/04/23 11:00:27;;;;;;;4.77;3.70;;;;;;;9.68;49.99;97923.34;5449172;26;20775;-80
2024/04/23 11:02:53;;;;;;;6.17;3.80;;;;;;;9.67;49.32;97900.53;5450668;26;20278;-80
2024/04/23 11:05:21;;;;;;;4.37;3.97;;;;;;;9.75;47.72;97898.19;5451543;26;20225;-80
2024/04/23 11:07:50;;;;;;;3.87;3.43;;;;;;;9.74;46.90;97870.94;5452146;26;20271;-79
2024/04/23 11:10:20;;;;;;;4.03;3.47;;;;;;;10.07;49.73;97910.00;5452454;26;20239;-80
2024/04/23 11:12:46;;;;;;;4.47;3.40;;;;;;;10.36;48.18;97890.31;5452564;26;20303;-80
2024/04/23 11:15:18;;;;;;;4.87;3.70;;;;;;;10.59;46.81;97873.63;5452361;26;20232;-80
2024/04/23 11:17:46;;;;;;;4.13;3.43;;;;;;;10.57;48.52;97891.38;5452402;26;20325;-80
2024/04/23 11:20:14;;;;;;;5.50;3.53;;;;;;;10.51;50.00;97915.63;5452104;26;20262;-79
2024/04/23 11:22:44;;;;;;;4.70;3.50;;;;;;;10.51;51.51;97931.50;5451093;26;20355;-79
2024/04/23 11:25:19;;;;;;;5.17;3.60;;;;;;;10.19;47.79;97882.75;5447771;26;20265;-79
2024/04/23 11:27:45;;;;;;;4.30;3.77;;;;;;;10.12;48.79;97885.00;5452544;26;20297;-80
2024/04/23 11:30:16;;;;;;;5.23;3.90;;;;;;;10.19;48.49;97882.75;5452569;26;20244;-78
2024/04/23 11:32:42;;;;;;;5.33;3.90;;;;;;;10.19;47.20;97866.91;5447266;26;20226;-78
2024/04/23 11:35:14;;;;;;;5.13;3.90;;;;;;;10.39;47.62;97867.16;5447740;26;20297;-78
2024/04/23 11:37:39;;;;;;;4.57;3.80;;;;;;;10.77;46.81;97861.72;5449348;26;20350;-78
2024/04/23 11:40:09;;;;;;;3.67;3.30;;;;;;;10.90;45.94;97844.78;5450408;26;20257;-78
2024/04/23 11:42:34;;;;;;;4.53;3.70;;;;;;;11.11;45.85;97848.47;5450941;26;20240;-79
2024/04/23 11:45:04;;;;;;;4.43;3.40;;;;;;;11.57;46.56;97866.97;5451310;26;20230;-78
2024/04/23 11:47:30;;;;;;;4.87;3.70;;;;;;;11.76;48.14;97875.22;5451224;26;20237;-79
2024/04/23 11:50:02;;;;;;;4.80;3.70;;;;;;;11.68;46.38;97853.78;5453145;26;20324;-79